Aviation Digital Data Service (ADDS)

Output produced by METARs form (0224 UTC 25 April 2014)
found at http://aviationweather.gov/adds/metars/
 
KIAG 250144Z 2502/2524 VRB04KT P6SM SCT120 BKN250 
     FM250600 11004KT P6SM SCT080 BKN100 
     FM251300 10012KT P6SM BKN080 
     FM252000 12010KT 6SM -SHRA OVC035 
     FM252300 12006KT 3SM -SHRA BR OVC015